Time;durP1;ratioP1;P1;durP2;ratioP2;P2;SDS_P1;SDS_P2;PMS_P1;PMS_P2;Temp;Humidity;BMP_temperature;BMP_pressure;BME280_temperature;BME280_humidity;BME280_pressure;Samples;Min_cycle;Max_cycle;Signal;HPM_P1;HPM_P2
2021/05/14 00:01:43;;;;;;;3.17;2.87;;;13.30;99.90;;;;;;5071200;28;20420;-77
2021/05/14 00:04:09;;;;;;;3.00;2.40;;;13.20;99.90;;;;;;5063138;28;20174;-77
2021/05/14 00:06:34;;;;;;;4.70;3.33;;;13.30;99.90;;;;;;5072656;28;20600;-77
2021/05/14 00:09:00;;;;;;;3.10;2.60;;;13.30;99.90;;;;;;5063551;28;20174;-77
2021/05/14 00:11:25;;;;;;;4.60;3.07;;;13.20;99.90;;;;;;5073156;28;20197;-77
2021/05/14 00:13:53;;;;;;;2.33;2.13;;;13.30;99.90;;;;;;5071451;28;20199;-77
2021/05/14 00:16:20;;;;;;;2.57;2.37;;;13.30;99.90;;;;;;5073235;28;20616;-77
2021/05/14 00:18:46;;;;;;;3.83;2.60;;;13.30;99.90;;;;;;5072867;28;20462;-77
2021/05/14 00:21:12;;;;;;;5.70;3.10;;;13.30;99.90;;;;;;5073556;28;20898;-77
2021/05/14 00:23:37;;;;;;;3.50;3.10;;;13.30;99.90;;;;;;5072800;28;20427;-77
2021/05/14 00:26:03;;;;;;;3.90;3.50;;;12.90;99.90;;;;;;5073342;28;20748;-77
2021/05/14 00:28:28;;;;;;;6.03;3.17;;;12.70;99.90;;;;;;5071667;28;20181;-76
2021/05/14 00:30:54;;;;;;;5.90;3.40;;;12.80;99.90;;;;;;5045841;28;20253;-76
2021/05/14 00:33:20;;;;;;;3.40;3.20;;;12.70;99.90;;;;;;5071224;28;20201;-76
2021/05/14 00:35:45;;;;;;;4.27;3.87;;;12.60;99.90;;;;;;5075279;28;20734;-75
2021/05/14 00:38:11;;;;;;;4.33;3.90;;;12.50;99.90;;;;;;5093738;28;20196;-76
2021/05/14 00:40:36;;;;;;;5.20;3.80;;;12.60;99.90;;;;;;5070144;28;20630;-77
2021/05/14 00:43:02;;;;;;;4.30;3.90;;;12.50;99.90;;;;;;5078001;28;20185;-76
2021/05/14 00:45:27;;;;;;;4.13;3.77;;;12.50;99.90;;;;;;5073090;28;20210;-76
2021/05/14 00:47:53;;;;;;;4.10;3.80;;;12.60;99.90;;;;;;5072809;28;20726;-76
2021/05/14 00:50:19;;;;;;;5.87;3.70;;;12.50;99.90;;;;;;5069013;28;20192;-76
2021/05/14 00:52:44;;;;;;;3.60;3.30;;;12.50;99.90;;;;;;5060431;28;20195;-76
2021/05/14 00:55:11;;;;;;;6.00;3.77;;;12.60;99.90;;;;;;5053064;28;20449;-76
2021/05/14 00:57:37;;;;;;;4.70;4.30;;;12.50;99.90;;;;;;5079385;28;20182;-76
2021/05/14 01:00:04;;;;;;;5.40;4.03;;;12.50;99.90;;;;;;5069818;28;20920;-76
2021/05/14 01:02:30;;;;;;;4.17;3.83;;;12.40;99.90;;;;;;5056747;28;20420;-76
2021/05/14 01:04:56;;;;;;;8.10;5.40;;;12.20;99.90;;;;;;5073800;28;20951;-76
2021/05/14 01:07:21;;;;;;;4.83;4.43;;;12.20;99.90;;;;;;5073871;28;20185;-76
2021/05/14 01:09:48;;;;;;;4.43;3.90;;;12.10;99.90;;;;;;5071735;28;20431;-76
2021/05/14 01:12:13;;;;;;;6.27;4.60;;;12.00;99.90;;;;;;5061449;28;20353;-76
2021/05/14 01:14:39;;;;;;;4.67;4.30;;;12.10;99.90;;;;;;5055261;28;20472;-76
2021/05/14 01:17:05;;;;;;;5.87;5.37;;;12.10;99.90;;;;;;5063147;28;20171;-76
2021/05/14 01:19:30;;;;;;;5.30;4.80;;;12.10;99.90;;;;;;5069678;28;20173;-77
2021/05/14 01:21:56;;;;;;;5.53;4.57;;;12.10;99.90;;;;;;5052031;28;20175;-76
2021/05/14 01:24:22;;;;;;;4.93;4.53;;;12.00;99.90;;;;;;5072880;28;20177;-76
2021/05/14 01:26:48;;;;;;;4.53;4.13;;;12.10;99.90;;;;;;5069829;28;20257;-76
2021/05/14 01:29:14;;;;;;;4.13;3.83;;;12.10;99.90;;;;;;5074310;28;20166;-76
2021/05/14 01:31:40;;;;;;;4.73;4.33;;;12.00;99.90;;;;;;5059960;28;20209;-75
2021/05/14 01:34:07;;;;;;;4.30;3.90;;;11.80;99.90;;;;;;5059197;28;20800;-76
2021/05/14 01:36:42;;;;;;;4.80;4.30;;;11.70;99.90;;;;;;5055949;28;20961;-76
2021/05/14 01:39:17;;;;;;;4.30;3.83;;;11.70;99.90;;;;;;5071710;28;20441;-76
2021/05/14 01:41:43;;;;;;;5.10;3.43;;;11.70;99.90;;;;;;5067277;28;20450;-76
2021/05/14 01:44:09;;;;;;;4.33;3.67;;;11.70;99.90;;;;;;5067560;28;20430;-76
2021/05/14 01:46:35;;;;;;;4.00;3.40;;;11.50;99.90;;;;;;5073943;28;20205;-76
2021/05/14 01:49:02;;;;;;;4.10;3.60;;;11.50;99.90;;;;;;5055447;28;20280;-76
2021/05/14 01:51:27;;;;;;;3.50;3.20;;;11.50;99.90;;;;;;5068820;28;20426;-77
2021/05/14 01:53:54;;;;;;;4.10;3.80;;;11.50;99.90;;;;;;5065245;28;20453;-76
2021/05/14 01:56:21;;;;;;;4.33;3.50;;;11.60;99.90;;;;;;5058370;28;20589;-76
2021/05/14 01:58:50;;;;;;;5.23;3.80;;;11.60;99.90;;;;;;5052706;28;20433;-77
2021/05/14 02:01:16;;;;;;;4.23;3.80;;;11.50;99.90;;;;;;5067562;28;20434;-77
2021/05/14 02:03:42;;;;;;;5.97;3.57;;;11.50;99.90;;;;;;5067812;28;20480;-76
2021/05/14 02:06:08;;;;;;;4.13;3.73;;;11.50;99.90;;;;;;5060919;28;20486;-76
2021/05/14 02:08:34;;;;;;;5.33;4.20;;;11.50;99.90;;;;;;5057536;28;20281;-76
2021/05/14 02:11:00;;;;;;;4.10;3.70;;;11.40;99.90;;;;;;5069609;28;20188;-76
2021/05/14 02:13:25;;;;;;;3.27;2.97;;;11.40;99.90;;;;;;5068127;28;20482;-76
2021/05/14 02:15:51;;;;;;;3.50;3.20;;;11.40;99.90;;;;;;5041722;28;21217;-76
2021/05/14 02:18:17;;;;;;;4.50;4.10;;;11.40;99.90;;;;;;5067044;28;20213;-77
2021/05/14 02:20:42;;;;;;;5.03;4.57;;;11.40;99.90;;;;;;5075882;28;20178;-76
2021/05/14 02:23:08;;;;;;;4.20;3.80;;;11.40;99.90;;;;;;5071692;28;20174;-76
2021/05/14 02:25:33;;;;;;;6.50;3.70;;;11.30;99.90;;;;;;5058491;28;20567;-76
2021/05/14 02:27:59;;;;;;;4.10;3.57;;;11.30;99.90;;;;;;5075227;28;20609;-76
2021/05/14 02:30:25;;;;;;;4.47;3.90;;;11.20;99.90;;;;;;5076451;28;20200;-76
2021/05/14 02:32:50;;;;;;;3.90;3.50;;;11.20;99.90;;;;;;5088828;28;20210;-76
2021/05/14 02:35:16;;;;;;;3.60;3.30;;;11.10;99.90;;;;;;5051607;28;20198;-76
2021/05/14 02:37:42;;;;;;;4.47;3.50;;;11.10;99.90;;;;;;5073944;28;20189;-76
2021/05/14 02:40:09;;;;;;;4.70;3.83;;;11.10;99.90;;;;;;5073890;28;20606;-76
2021/05/14 02:42:34;;;;;;;6.70;4.70;;;11.00;99.90;;;;;;5066242;28;20498;-76
2021/05/14 02:45:00;;;;;;;3.37;3.10;;;11.00;99.90;;;;;;5063671;28;20499;-76
2021/05/14 02:47:27;;;;;;;7.90;4.20;;;11.00;99.90;;;;;;5069096;28;20432;-77
2021/05/14 02:49:53;;;;;;;4.67;4.27;;;11.00;99.90;;;;;;5056982;28;20229;-76
2021/05/14 02:52:18;;;;;;;5.57;5.07;;;10.90;99.90;;;;;;5073427;28;20513;-76
2021/05/14 02:54:44;;;;;;;6.37;4.07;;;10.90;99.90;;;;;;5063653;28;20212;-76
2021/05/14 02:57:09;;;;;;;4.90;4.50;;;10.90;99.90;;;;;;5069870;28;20179;-76
2021/05/14 02:59:35;;;;;;;4.90;4.40;;;10.90;99.90;;;;;;5067308;28;20178;-76
2021/05/14 03:02:00;;;;;;;4.57;4.17;;;10.90;99.90;;;;;;5058376;28;20182;-76
2021/05/14 03:04:26;;;;;;;4.80;4.37;;;10.90;99.90;;;;;;5059036;28;20225;-76
2021/05/14 03:06:52;;;;;;;5.17;4.40;;;10.80;99.90;;;;;;5074085;28;20186;-76
2021/05/14 03:09:17;;;;;;;4.13;3.73;;;10.90;99.90;;;;;;5077833;28;20650;-76
2021/05/14 03:11:43;;;;;;;5.50;3.57;;;10.80;99.90;;;;;;5069575;28;20201;-76
2021/05/14 03:14:09;;;;;;;10.33;4.07;;;10.80;99.90;;;;;;5071302;28;20723;-76
2021/05/14 03:16:35;;;;;;;4.70;4.00;;;10.80;99.90;;;;;;5070929;28;20209;-76
2021/05/14 03:19:00;;;;;;;5.10;4.70;;;10.80;99.90;;;;;;5077129;28;20519;-76
2021/05/14 03:21:27;;;;;;;7.10;3.67;;;10.80;99.90;;;;;;5070730;28;20428;-76
2021/05/14 03:23:54;;;;;;;4.87;3.60;;;10.80;99.90;;;;;;5077051;28;20172;-76
2021/05/14 03:26:20;;;;;;;4.70;4.20;;;10.80;99.90;;;;;;5072924;28;20438;-76
2021/05/14 03:28:46;;;;;;;4.17;3.87;;;10.80;99.90;;;;;;5076868;28;20413;-76
2021/05/14 03:31:11;;;;;;;4.20;3.90;;;10.60;99.90;;;;;;5064038;28;20204;-76
2021/05/14 03:33:37;;;;;;;4.33;3.93;;;10.50;99.90;;;;;;5061856;28;20206;-76
2021/05/14 03:36:02;;;;;;;4.60;4.23;;;10.50;99.90;;;;;;5074005;28;20221;-76
2021/05/14 03:38:33;;;;;;;5.40;4.03;;;10.40;99.90;;;;;;5074021;28;20198;-76
2021/05/14 03:41:01;;;;;;;4.70;4.30;;;10.30;99.90;;;;;;5057042;28;20843;-76
2021/05/14 03:43:27;;;;;;;5.20;3.50;;;10.30;99.90;;;;;;5068430;28;20415;-76
2021/05/14 03:45:53;;;;;;;6.20;3.77;;;10.20;99.90;;;;;;5073529;28;20447;-76
2021/05/14 03:48:19;;;;;;;4.50;4.10;;;10.20;99.90;;;;;;5068444;28;20448;-76
2021/05/14 03:50:50;;;;;;;4.70;3.87;;;10.20;99.90;;;;;;5063982;28;20175;-76
2021/05/14 03:53:17;;;;;;;5.67;3.97;;;10.20;99.90;;;;;;5065748;28;20466;-76
2021/05/14 03:55:43;;;;;;;5.33;3.70;;;10.10;99.90;;;;;;5057684;28;20594;-76
2021/05/14 03:58:09;;;;;;;3.93;3.60;;;10.10;99.90;;;;;;5068816;28;20504;-76
2021/05/14 04:00:34;;;;;;;3.40;3.10;;;10.20;99.90;;;;;;5042384;28;20515;-76
2021/05/14 04:03:00;;;;;;;3.80;3.20;;;10.20;99.90;;;;;;5073378;28;20754;-76
2021/05/14 04:05:26;;;;;;;4.07;3.30;;;10.30;99.90;;;;;;5067922;28;20194;-76
2021/05/14 04:07:53;;;;;;;3.90;2.90;;;10.30;99.90;;;;;;5067052;28;20332;-76
2021/05/14 04:15:37;;;;;;;5.90;3.67;;;10.40;99.90;;;;;;5073227;28;20443;-76
2021/05/14 04:18:02;;;;;;;3.17;2.87;;;10.40;99.90;;;;;;5075598;28;20432;-76
2021/05/14 04:20:28;;;;;;;3.77;3.47;;;10.50;99.90;;;;;;5061518;28;20177;-76
2021/05/14 04:22:53;;;;;;;3.90;3.47;;;10.50;99.90;;;;;;5057436;28;20256;-76
2021/05/14 04:25:19;;;;;;;5.20;3.27;;;10.50;99.90;;;;;;5074262;28;20726;-76
2021/05/14 04:27:44;;;;;;;4.13;3.47;;;10.50;99.90;;;;;;5050496;28;20211;-76
2021/05/14 04:30:10;;;;;;;3.77;3.47;;;10.50;99.90;;;;;;5071069;28;20268;-76
2021/05/14 04:32:36;;;;;;;4.40;3.30;;;10.50;99.90;;;;;;5059432;28;20241;-76
2021/05/14 04:35:02;;;;;;;3.50;3.20;;;10.50;99.90;;;;;;5063623;28;20821;-76
2021/05/14 04:37:27;;;;;;;5.33;3.67;;;10.60;99.90;;;;;;5062482;28;20651;-76
2021/05/14 04:39:53;;;;;;;4.63;4.23;;;10.60;99.90;;;;;;5074474;28;20838;-76
2021/05/14 04:42:18;;;;;;;3.70;3.40;;;10.60;99.90;;;;;;5061233;28;20180;-79
2021/05/14 04:44:44;;;;;;;4.70;3.20;;;10.60;99.90;;;;;;5070964;28;20210;-79
2021/05/14 04:47:10;;;;;;;3.60;3.30;;;10.60;99.90;;;;;;5072243;28;20175;-76
2021/05/14 04:49:35;;;;;;;4.00;3.33;;;10.70;99.90;;;;;;5053864;28;20652;-77
2021/05/14 04:52:01;;;;;;;4.63;3.40;;;10.80;99.90;;;;;;5063633;28;20208;-76
2021/05/14 04:54:26;;;;;;;3.30;3.00;;;10.90;99.90;;;;;;5073405;28;20166;-76
2021/05/14 04:56:52;;;;;;;4.30;2.73;;;10.90;99.90;;;;;;5066880;28;20182;-76
2021/05/14 04:59:18;;;;;;;4.43;3.40;;;11.00;99.90;;;;;;5058583;28;20179;-76
2021/05/14 05:01:44;;;;;;;4.13;3.07;;;11.00;99.90;;;;;;5060847;28;20436;-76
2021/05/14 05:04:09;;;;;;;6.80;3.20;;;11.10;99.90;;;;;;5067234;28;20182;-76
2021/05/14 05:06:35;;;;;;;3.23;2.93;;;11.20;99.90;;;;;;5051165;28;20548;-77
2021/05/14 05:09:01;;;;;;;3.70;2.97;;;11.20;99.90;;;;;;5038812;28;20175;-76
2021/05/14 05:11:26;;;;;;;5.20;3.13;;;11.30;99.90;;;;;;5061876;28;20313;-76
2021/05/14 05:13:52;;;;;;;2.63;2.40;;;11.40;99.90;;;;;;5070239;28;20613;-76
2021/05/14 05:16:17;;;;;;;9.80;2.90;;;11.40;99.90;;;;;;5073961;28;20235;-77
2021/05/14 05:18:43;;;;;;;3.73;2.87;;;11.50;99.90;;;;;;5067570;28;20542;-76
2021/05/14 05:21:09;;;;;;;3.33;2.80;;;11.60;99.90;;;;;;5037893;28;20179;-77
2021/05/14 05:23:34;;;;;;;2.47;2.27;;;11.70;99.90;;;;;;5075122;28;20605;-76
2021/05/14 05:26:00;;;;;;;3.47;2.60;;;11.80;99.90;;;;;;5058460;28;20206;-76
2021/05/14 05:28:27;;;;;;;11.93;2.67;;;11.80;99.90;;;;;;5068026;28;20182;-76
2021/05/14 05:30:53;;;;;;;5.30;2.33;;;12.00;99.90;;;;;;5069509;28;20205;-77
2021/05/14 05:33:19;;;;;;;3.00;2.33;;;12.10;99.90;;;;;;5080927;28;20486;-77
2021/05/14 05:35:45;;;;;;;3.83;2.00;;;12.10;99.90;;;;;;5063682;28;20440;-76
2021/05/14 05:38:15;;;;;;;2.80;1.87;;;12.30;99.90;;;;;;5078891;28;20177;-77
2021/05/14 05:40:40;;;;;;;3.20;1.90;;;12.30;99.90;;;;;;5075917;28;20182;-78
2021/05/14 05:43:06;;;;;;;2.40;2.10;;;12.30;99.90;;;;;;5073179;28;20420;-78
2021/05/14 05:45:31;;;;;;;2.07;1.87;;;12.30;99.90;;;;;;5059289;28;20270;-76
2021/05/14 05:47:57;;;;;;;2.50;1.97;;;12.50;99.90;;;;;;5067859;28;20659;-77
2021/05/14 05:50:22;;;;;;;2.10;1.87;;;12.60;99.90;;;;;;5070373;28;20244;-77
2021/05/14 05:52:51;;;;;;;3.93;2.40;;;12.70;99.90;;;;;;5047289;28;20192;-76
2021/05/14 05:55:17;;;;;;;2.30;2.10;;;12.80;99.90;;;;;;5052938;28;20199;-77
2021/05/14 05:57:42;;;;;;;2.10;1.90;;;13.00;99.90;;;;;;5052759;28;20793;-77
2021/05/14 06:00:09;;;;;;;4.73;1.97;;;13.30;99.90;;;;;;5058065;28;20166;-77
2021/05/14 06:02:34;;;;;;;4.40;2.50;;;13.40;99.90;;;;;;5073451;28;20535;-77
2021/05/14 06:05:00;;;;;;;3.47;1.70;;;13.50;99.90;;;;;;5049400;28;20532;-77
2021/05/14 06:07:25;;;;;;;2.67;1.93;;;13.80;99.90;;;;;;5057931;28;20179;-77
2021/05/14 06:09:51;;;;;;;4.10;2.37;;;13.90;99.90;;;;;;5075636;28;20182;-77
2021/05/14 06:12:16;;;;;;;3.47;1.90;;;14.00;99.90;;;;;;5077257;28;20218;-77
2021/05/14 06:14:42;;;;;;;3.43;1.97;;;13.90;99.90;;;;;;5066018;28;20195;-77
2021/05/14 06:17:12;;;;;;;1.70;1.50;;;14.00;99.90;;;;;;5047489;28;20186;-77
2021/05/14 06:19:44;;;;;;;4.83;1.50;;;14.10;99.90;;;;;;5070196;28;20166;-77
2021/05/14 06:22:10;;;;;;;3.93;2.00;;;14.30;99.90;;;;;;5059276;28;20838;-78
2021/05/14 06:24:36;;;;;;;3.33;2.07;;;14.40;99.90;;;;;;5080554;28;20428;-77
2021/05/14 06:27:01;;;;;;;3.53;2.03;;;14.30;99.90;;;;;;5079696;28;20965;-78
2021/05/14 06:29:27;;;;;;;2.30;1.73;;;14.20;99.90;;;;;;5049586;28;20262;-78
2021/05/14 06:31:52;;;;;;;2.33;2.13;;;13.70;99.90;;;;;;5068155;28;20270;-77
2021/05/14 06:34:18;;;;;;;3.00;2.33;;;13.60;99.90;;;;;;5072770;28;20253;-77
2021/05/14 06:36:43;;;;;;;4.87;2.20;;;13.50;99.90;;;;;;5053707;28;20183;-78
2021/05/14 06:39:09;;;;;;;2.37;1.80;;;13.50;99.90;;;;;;5055518;28;20181;-78
2021/05/14 06:41:34;;;;;;;2.03;1.83;;;13.40;99.90;;;;;;5069472;28;20185;-77
2021/05/14 06:44:00;;;;;;;3.10;2.10;;;13.50;99.90;;;;;;5061052;28;20170;-79
2021/05/14 06:46:26;;;;;;;2.40;1.80;;;13.80;99.90;;;;;;5078150;28;20701;-78
2021/05/14 06:48:52;;;;;;;2.00;1.83;;;14.10;99.90;;;;;;5060165;28;20190;-79
2021/05/14 06:51:18;;;;;;;3.00;2.27;;;14.00;99.90;;;;;;5068808;28;20182;-76
2021/05/14 06:53:43;;;;;;;2.20;2.00;;;14.20;99.90;;;;;;5072833;28;20202;-76
2021/05/14 06:56:09;;;;;;;4.03;2.17;;;14.50;99.90;;;;;;5060246;28;20456;-77
2021/05/14 06:58:35;;;;;;;2.50;1.93;;;14.70;99.90;;;;;;5071260;28;20248;-77
2021/05/14 07:01:00;;;;;;;3.10;1.90;;;14.80;99.90;;;;;;5066627;28;20512;-77
2021/05/14 07:03:26;;;;;;;3.50;2.20;;;15.00;99.90;;;;;;5069748;28;20182;-77
2021/05/14 07:05:52;;;;;;;5.50;2.33;;;15.30;99.90;;;;;;5072359;28;20557;-77
2021/05/14 07:08:18;;;;;;;3.97;2.20;;;15.40;99.90;;;;;;5072188;28;20197;-77
2021/05/14 07:10:43;;;;;;;2.10;1.90;;;15.80;99.90;;;;;;5071034;28;20432;-77
2021/05/14 07:13:09;;;;;;;2.60;1.77;;;16.00;99.90;;;;;;5069523;28;20202;-77
2021/05/14 07:15:34;;;;;;;3.17;2.10;;;16.30;99.90;;;;;;5070824;28;20300;-77
2021/05/14 07:18:00;;;;;;;2.17;1.57;;;16.70;99.90;;;;;;5049515;28;20534;-77
2021/05/14 07:20:26;;;;;;;2.60;1.80;;;17.20;99.90;;;;;;5067311;28;20170;-77
2021/05/14 07:22:53;;;;;;;4.33;1.97;;;17.60;99.90;;;;;;5069958;28;20436;-77
2021/05/14 07:25:19;;;;;;;1.93;1.80;;;17.50;99.90;;;;;;5071443;28;20555;-77
2021/05/14 07:27:45;;;;;;;6.83;2.13;;;17.90;99.90;;;;;;5063081;28;20785;-78
2021/05/14 07:30:12;;;;;;;1.60;1.40;;;18.30;99.90;;;;;;5051922;28;20528;-78
2021/05/14 07:32:38;;;;;;;4.00;2.00;;;18.80;99.90;;;;;;5058940;28;20482;-79
2021/05/14 07:35:05;;;;;;;1.80;1.50;;;19.30;99.90;;;;;;5074307;28;20989;-79
2021/05/14 07:37:31;;;;;;;3.77;2.03;;;20.00;99.90;;;;;;5075368;28;20502;-78
2021/05/14 07:39:56;;;;;;;2.47;1.53;;;20.40;99.90;;;;;;5080358;28;20853;-79
2021/05/14 07:42:22;;;;;;;1.50;1.20;;;20.90;99.90;;;;;;5080216;28;20177;-78
2021/05/14 07:44:48;;;;;;;2.80;1.70;;;20.80;99.90;;;;;;5068445;28;20195;-79
2021/05/14 07:47:14;;;;;;;2.60;1.33;;;21.30;99.90;;;;;;5090459;28;20174;-80
2021/05/14 07:49:40;;;;;;;3.53;1.70;;;21.80;99.90;;;;;;5075351;28;20481;-79
2021/05/14 07:52:05;;;;;;;2.83;2.30;;;21.80;99.90;;;;;;5061146;28;20199;-78
2021/05/14 07:54:31;;;;;;;2.70;1.70;;;21.90;99.90;;;;;;5056000;28;20433;-78
2021/05/14 07:56:57;;;;;;;6.07;2.07;;;21.30;99.70;;;;;;5075216;28;20443;-77
2021/05/14 07:59:22;;;;;;;3.10;2.07;;;21.20;99.90;;;;;;5086003;28;20539;-79
2021/05/14 08:01:48;;;;;;;2.00;1.80;;;21.40;99.90;;;;;;5069106;28;20287;-78
2021/05/14 08:04:14;;;;;;;5.33;1.83;;;21.40;99.90;;;;;;5065266;28;20177;-79
2021/05/14 08:06:39;;;;;;;5.60;3.87;;;21.00;99.90;;;;;;5074171;28;20182;-79
2021/05/14 08:09:08;;;;;;;4.00;2.63;;;20.60;99.90;;;;;;5066629;28;20182;-79
2021/05/14 08:11:34;;;;;;;4.87;2.27;;;19.70;99.90;;;;;;5058624;28;20636;-78
2021/05/14 08:13:59;;;;;;;3.20;2.10;;;19.40;99.90;;;;;;5075265;28;20490;-79
2021/05/14 08:16:25;;;;;;;2.90;1.73;;;19.10;99.90;;;;;;5058650;28;20256;-78
2021/05/14 08:18:53;;;;;;;13.00;10.83;;;19.40;99.90;;;;;;5054921;28;20589;-78
2021/05/14 08:21:20;;;;;;;5.10;4.60;;;19.80;99.90;;;;;;5063402;28;20249;-79
2021/05/14 08:23:46;;;;;;;4.40;1.83;;;20.00;99.90;;;;;;5076763;28;20434;-78
2021/05/14 08:26:12;;;;;;;2.70;2.20;;;20.60;99.90;;;;;;5055864;28;20452;-78
2021/05/14 08:28:38;;;;;;;2.23;2.03;;;20.80;99.90;;;;;;5065382;28;20178;-78
2021/05/14 08:31:03;;;;;;;5.33;1.93;;;21.20;99.90;;;;;;5072509;28;20496;-79
2021/05/14 08:33:33;;;;;;;2.90;1.83;;;21.00;99.90;;;;;;5074849;28;20456;-78
2021/05/14 08:35:58;;;;;;;2.27;1.50;;;21.70;99.90;;;;;;5058088;28;20289;-78
2021/05/14 08:38:26;;;;;;;2.67;1.77;;;22.40;99.90;;;;;;5074224;28;20448;-78
2021/05/14 08:40:53;;;;;;;2.70;1.90;;;22.40;96.70;;;;;;5073045;28;20174;-78
2021/05/14 08:43:25;;;;;;;3.00;1.70;;;22.70;94.50;;;;;;5057328;28;20432;-78
2021/05/14 08:45:51;;;;;;;2.80;2.10;;;22.60;93.90;;;;;;5053250;28;20455;-79
2021/05/14 08:48:17;;;;;;;2.73;1.97;;;22.50;93.00;;;;;;5073194;28;20444;-78
2021/05/14 08:50:43;;;;;;;3.90;1.90;;;22.60;94.00;;;;;;5072786;28;20639;-78
2021/05/14 08:53:15;;;;;;;1.57;1.47;;;22.70;94.10;;;;;;5074925;28;20516;-78
2021/05/14 08:56:13;;;;;;;5.50;2.70;;;23.10;93.10;;;;;;5058092;28;20535;-79
2021/05/14 08:58:42;;;;;;;2.90;2.13;;;23.60;91.50;;;;;;5037622;28;20477;-78
2021/05/14 09:01:08;;;;;;;2.47;2.00;;;24.30;91.50;;;;;;5055499;28;20412;-80
2021/05/14 09:03:55;;;;;;;4.63;2.90;;;24.20;83.40;;;;;;5074104;28;20174;-79
2021/05/14 09:06:47;;;;;;;5.90;2.10;;;24.40;79.30;;;;;;5059350;28;20216;-79
2021/05/14 09:09:14;;;;;;;1.93;1.60;;;23.20;78.40;;;;;;5071906;28;20517;-79
2021/05/14 09:12:09;;;;;;;3.90;2.03;;;23.00;81.70;;;;;;5068018;28;20428;-79
2021/05/14 09:15:28;;;;;;;4.23;1.60;;;23.30;83.20;;;;;;5027409;28;20432;-79
2021/05/14 09:18:19;;;;;;;2.00;1.70;;;24.30;83.30;;;;;;5076036;28;20419;-78
2021/05/14 09:20:55;;;;;;;2.83;2.13;;;25.30;78.10;;;;;;5075506;28;20529;-79
2021/05/14 09:23:58;;;;;;;2.73;1.73;;;26.00;77.80;;;;;;5075462;28;20408;-78
2021/05/14 09:26:41;;;;;;;1.80;1.70;;;26.90;78.30;;;;;;5069597;28;20447;-79
2021/05/14 09:36:57;;;;;;;1.77;1.60;;;27.30;66.30;;;;;;4993154;28;20522;-80
2021/05/14 09:40:21;;;;;;;2.93;1.90;;;27.50;61.60;;;;;;4917371;29;20984;-79
2021/05/14 09:43:06;;;;;;;2.90;1.67;;;27.30;59.60;;;;;;4913867;28;20426;-79
2021/05/14 09:45:32;;;;;;;2.60;1.63;;;26.50;59.40;;;;;;5049936;28;20543;-79
2021/05/14 09:48:26;;;;;;;2.23;1.67;;;25.90;59.00;;;;;;5065876;28;20644;-79
2021/05/14 09:50:52;;;;;;;3.47;2.03;;;24.50;58.10;;;;;;5059506;28;20596;-80
2021/05/14 09:53:20;;;;;;;3.20;1.93;;;24.50;64.60;;;;;;5057631;28;20456;-80
2021/05/14 09:55:50;;;;;;;2.20;2.00;;;23.60;63.90;;;;;;5065447;28;20467;-79
2021/05/14 09:58:20;;;;;;;10.50;1.97;;;22.40;64.10;;;;;;5065285;28;20424;-79
2021/05/14 10:00:46;;;;;;;3.00;1.90;;;22.80;74.30;;;;;;5080354;28;20438;-80
2021/05/14 10:03:19;;;;;;;6.13;2.13;;;22.80;75.40;;;;;;5058812;28;20487;-80
2021/05/14 10:05:45;;;;;;;2.97;2.10;;;22.60;82.10;;;;;;5078656;28;21018;-79
2021/05/14 10:08:16;;;;;;;2.57;2.03;;;22.50;84.30;;;;;;5086779;28;20479;-79
2021/05/14 10:10:44;;;;;;;2.67;2.43;;;22.30;89.00;;;;;;5103592;28;20835;-79
2021/05/14 10:13:11;;;;;;;4.43;1.70;;;22.20;89.40;;;;;;5086018;28;20455;-79
2021/05/14 10:15:38;;;;;;;2.70;2.30;;;21.90;90.60;;;;;;5085186;28;20423;-79
2021/05/14 10:18:07;;;;;;;4.53;2.80;;;22.00;90.60;;;;;;5070193;28;20508;-79
2021/05/14 10:20:35;;;;;;;2.50;2.30;;;22.00;93.00;;;;;;5066176;28;20420;-79
2021/05/14 10:23:02;;;;;;;3.93;2.23;;;21.80;94.30;;;;;;5082043;28;20404;-79
2021/05/14 10:25:34;;;;;;;3.10;2.50;;;21.40;92.80;;;;;;5082598;28;20437;-79
2021/05/14 10:28:11;;;;;;;2.47;2.00;;;21.30;94.90;;;;;;5065305;28;20413;-79
2021/05/14 10:30:36;;;;;;;2.00;1.80;;;21.20;97.80;;;;;;5074113;28;20428;-79
2021/05/14 10:33:03;;;;;;;3.63;1.83;;;20.70;99.40;;;;;;5083034;28;20488;-79
2021/05/14 10:35:31;;;;;;;2.80;1.63;;;20.70;99.90;;;;;;5068973;28;20203;-78
2021/05/14 10:38:07;;;;;;;4.20;1.57;;;20.30;99.90;;;;;;5043705;28;20532;-79
2021/05/14 10:40:37;;;;;;;2.60;1.80;;;20.10;99.90;;;;;;5053928;28;20415;-79
2021/05/14 10:43:08;;;;;;;2.40;2.30;;;19.80;99.90;;;;;;5101455;28;20818;-79
2021/05/14 10:45:43;;;;;;;5.37;1.47;;;19.70;99.90;;;;;;5096160;28;20436;-79
2021/05/14 10:48:22;;;;;;;1.60;1.23;;;19.10;99.90;;;;;;5043948;28;20443;-78
2021/05/14 10:50:54;;;;;;;2.90;1.20;;;18.60;99.90;;;;;;5060246;28;20984;-78
2021/05/14 10:53:21;;;;;;;2.40;1.60;;;17.70;99.90;;;;;;5042567;28;20460;-79
2021/05/14 10:55:48;;;;;;;3.70;2.20;;;16.90;99.90;;;;;;5060267;28;20515;-78
2021/05/14 10:58:45;;;;;;;4.90;2.13;;;16.30;99.90;;;;;;5059951;28;20401;-78
2021/05/14 11:01:31;;;;;;;2.13;1.93;;;16.00;99.90;;;;;;5056577;28;20808;-78
2021/05/14 11:03:59;;;;;;;2.30;2.00;;;15.50;99.90;;;;;;5060674;28;20769;-79
2021/05/14 11:06:25;;;;;;;2.20;1.50;;;15.20;99.90;;;;;;5063268;28;20432;-81
2021/05/14 11:09:03;;;;;;;2.93;1.50;;;14.80;99.90;;;;;;5081420;28;20412;-81
2021/05/14 11:11:29;;;;;;;1.87;1.67;;;14.60;99.90;;;;;;5080632;28;20412;-81
2021/05/14 11:13:55;;;;;;;1.53;1.43;;;14.50;99.90;;;;;;5080348;28;20423;-79
2021/05/14 11:16:31;;;;;;;2.33;1.53;;;14.50;99.90;;;;;;5077031;28;20437;-79
2021/05/14 11:18:57;;;;;;;4.03;1.30;;;14.40;99.90;;;;;;5063853;28;20481;-81
2021/05/14 11:21:43;;;;;;;1.50;1.40;;;14.20;99.90;;;;;;5081041;28;20420;-81
2021/05/14 11:24:08;;;;;;;1.37;1.27;;;14.40;99.90;;;;;;5061809;28;20443;-79
2021/05/14 11:26:34;;;;;;;1.67;1.27;;;14.50;99.90;;;;;;5059107;28;20445;-78
2021/05/14 11:29:00;;;;;;;2.20;1.40;;;14.70;99.90;;;;;;5060342;28;20308;-79
2021/05/14 11:31:25;;;;;;;3.03;1.93;;;14.90;99.90;;;;;;5060230;28;20170;-79
2021/05/14 11:33:56;;;;;;;5.33;3.33;;;15.00;99.90;;;;;;5060457;28;20197;-78
2021/05/14 11:36:23;;;;;;;1.60;1.20;;;15.20;99.90;;;;;;5061649;28;20806;-79
2021/05/14 11:38:51;;;;;;;3.83;1.40;;;15.30;99.90;;;;;;5060587;28;20494;-80
2021/05/14 11:41:23;;;;;;;1.63;1.40;;;15.50;99.90;;;;;;5077047;28;20492;-79
2021/05/14 11:43:53;;;;;;;1.70;1.00;;;15.60;99.90;;;;;;5065713;28;20478;-78
2021/05/14 11:46:18;;;;;;;1.33;0.97;;;15.70;99.90;;;;;;5049523;28;20448;-79
2021/05/14 11:48:44;;;;;;;1.10;0.80;;;15.90;99.90;;;;;;5069821;28;20934;-80
2021/05/14 11:51:10;;;;;;;2.50;0.90;;;16.10;99.90;;;;;;5040903;28;20175;-80
2021/05/14 11:53:35;;;;;;;2.07;0.90;;;16.20;99.90;;;;;;5041755;28;20198;-79
2021/05/14 11:56:03;;;;;;;1.17;0.80;;;16.40;99.90;;;;;;5059720;28;20245;-80
2021/05/14 11:58:29;;;;;;;1.83;1.00;;;16.50;99.90;;;;;;5072282;28;20186;-80
2021/05/14 12:00:56;;;;;;;2.43;0.90;;;16.90;99.90;;;;;;5051853;28;20424;-79
2021/05/14 12:03:25;;;;;;;3.00;1.00;;;17.30;99.90;;;;;;5078753;28;20176;-79
2021/05/14 12:05:51;;;;;;;1.73;0.70;;;17.70;99.90;;;;;;5080412;28;20447;-80
2021/05/14 12:08:20;;;;;;;1.10;0.87;;;18.00;99.90;;;;;;5079079;28;20455;-80
2021/05/14 12:10:50;;;;;;;1.10;0.87;;;18.40;99.90;;;;;;5080088;28;20405;-79
2021/05/14 12:13:21;;;;;;;1.43;0.97;;;18.70;99.90;;;;;;5071967;28;20502;-80
2021/05/14 12:16:00;;;;;;;1.10;0.80;;;18.90;99.90;;;;;;5057753;28;20444;-79
2021/05/14 12:18:30;;;;;;;1.43;0.77;;;19.20;99.90;;;;;;5041340;28;20418;-79
2021/05/14 12:20:57;;;;;;;1.10;0.80;;;19.30;99.90;;;;;;5058355;28;20489;-79
2021/05/14 12:23:26;;;;;;;2.23;1.30;;;19.50;99.90;;;;;;5055829;28;20428;-79
2021/05/14 12:25:58;;;;;;;1.00;0.70;;;19.50;99.90;;;;;;5076038;28;20503;-79
2021/05/14 12:28:41;;;;;;;1.33;0.90;;;19.50;99.90;;;;;;5061210;28;20424;-79
2021/05/14 12:31:09;;;;;;;1.23;0.70;;;19.40;99.90;;;;;;5075487;28;20511;-80
2021/05/14 12:33:55;;;;;;;1.30;1.00;;;19.50;99.90;;;;;;5078072;28;20456;-79
2021/05/14 12:36:24;;;;;;;1.10;0.90;;;19.50;99.90;;;;;;5077505;28;20424;-78
2021/05/14 12:38:51;;;;;;;1.47;0.90;;;19.80;99.90;;;;;;5060223;28;20507;-80
2021/05/14 12:41:22;;;;;;;1.60;1.43;;;20.10;99.90;;;;;;5052082;28;20475;-79
2021/05/14 12:43:48;;;;;;;1.37;0.90;;;20.60;99.90;;;;;;5067668;28;20424;-80
2021/05/14 12:46:14;;;;;;;48.80;43.70;;;21.10;99.90;;;;;;5080311;28;20463;-80
2021/05/14 12:48:39;;;;;;;1.53;1.43;;;21.50;99.90;;;;;;5068279;28;20458;-80
2021/05/14 12:51:05;;;;;;;2.57;1.10;;;22.10;99.90;;;;;;5068369;28;20208;-79
2021/05/14 12:53:30;;;;;;;1.03;0.77;;;22.40;99.90;;;;;;5063520;28;20198;-78
2021/05/14 12:55:56;;;;;;;1.20;0.83;;;22.70;99.90;;;;;;5066042;28;20226;-80
2021/05/14 12:58:36;;;;;;;1.20;0.80;;;22.90;99.90;;;;;;5067648;28;20193;-81
2021/05/14 13:01:02;;;;;;;1.30;0.90;;;23.40;99.90;;;;;;5061939;28;20694;-80
2021/05/14 13:03:32;;;;;;;1.33;0.80;;;24.00;99.90;;;;;;5070425;28;20429;-81